createdAt,value
2022-12-25T00:01:38.877Z,2.20
2022-12-25T00:04:05.484Z,2.22
2022-12-25T00:06:31.931Z,2.15
2022-12-25T00:08:58.368Z,2.00
2022-12-25T00:11:24.730Z,1.83
2022-12-25T00:13:51.255Z,2.25
2022-12-25T00:16:20.622Z,2.08
2022-12-25T00:18:47.913Z,2.20
2022-12-25T00:21:15.286Z,2.15
2022-12-25T00:23:41.994Z,1.98
2022-12-25T00:26:11.311Z,1.98
2022-12-25T00:28:37.788Z,1.92
2022-12-25T00:31:08.965Z,2.15
2022-12-25T00:33:40.576Z,2.25
2022-12-25T00:36:08.047Z,2.60
2022-12-25T00:38:36.180Z,2.30
2022-12-25T00:41:11.749Z,2.13
2022-12-25T00:43:38.553Z,2.08
2022-12-25T00:46:06.652Z,2.10
2022-12-25T00:48:34.651Z,2.20
2022-12-25T00:51:04.660Z,2.40
2022-12-25T00:53:31.499Z,2.55
2022-12-25T00:56:03.742Z,2.60
2022-12-25T00:58:32.225Z,2.40
2022-12-25T01:00:58.926Z,2.42
2022-12-25T01:03:26.371Z,2.65
2022-12-25T01:05:58.906Z,2.67
2022-12-25T01:08:26.136Z,2.95
2022-12-25T01:11:18.822Z,3.05
2022-12-25T01:13:45.178Z,3.13
2022-12-25T01:16:11.832Z,3.47
2022-12-25T01:18:38.799Z,3.30
2022-12-25T01:21:09.862Z,3.25
2022-12-25T01:23:36.729Z,3.70
2022-12-25T01:26:07.926Z,3.20
2022-12-25T01:28:35.562Z,3.40
2022-12-25T01:31:02.621Z,3.10
2022-12-25T01:33:29.079Z,3.13
2022-12-25T01:35:55.777Z,3.05
2022-12-25T01:38:22.180Z,2.85
2022-12-25T01:40:48.611Z,3.00
2022-12-25T01:43:22.880Z,3.00
2022-12-25T01:45:52.462Z,3.30
2022-12-25T01:51:01.689Z,3.40
2022-12-25T01:55:58.979Z,3.08
2022-12-25T01:58:25.790Z,5.15
2022-12-25T02:00:52.276Z,4.55
2022-12-25T02:03:20.740Z,6.32
2022-12-25T02:05:47.991Z,3.20
2022-12-25T02:08:18.317Z,3.40
2022-12-25T02:10:44.964Z,3.25
2022-12-25T02:13:13.999Z,4.20
2022-12-25T02:15:50.477Z,3.45
2022-12-25T02:18:16.963Z,3.38
2022-12-25T02:21:04.601Z,3.55
2022-12-25T02:23:57.772Z,3.70
2022-12-25T02:26:50.622Z,3.75
2022-12-25T02:29:33.777Z,6.85
2022-12-25T02:32:13.017Z,3.97
2022-12-25T02:34:51.106Z,4.18
2022-12-25T02:37:29.223Z,4.00
2022-12-25T02:40:01.098Z,3.90
2022-12-25T02:43:07.678Z,3.90
2022-12-25T02:46:10.614Z,4.30
2022-12-25T02:49:00.192Z,4.80
2022-12-25T02:51:47.875Z,4.80
2022-12-25T02:54:37.961Z,6.15
2022-12-25T02:57:27.196Z,4.05
2022-12-25T03:00:14.598Z,3.65
2022-12-25T03:03:02.114Z,4.00
2022-12-25T03:05:50.197Z,4.40
2022-12-25T03:08:21.840Z,3.90
2022-12-25T03:11:21.574Z,11.50
2022-12-25T03:13:52.963Z,7.20
2022-12-25T03:16:39.331Z,6.65
2022-12-25T03:19:25.804Z,4.90
2022-12-25T03:22:13.264Z,3.97
2022-12-25T03:24:59.631Z,3.85
2022-12-25T03:27:29.131Z,4.03
2022-12-25T03:30:14.282Z,3.70
2022-12-25T03:32:58.987Z,3.83
2022-12-25T03:36:03.263Z,3.70
2022-12-25T03:38:51.606Z,3.95
2022-12-25T03:44:45.922Z,3.50
2022-12-25T03:47:46.349Z,3.55
2022-12-25T03:50:40.131Z,3.15
2022-12-25T03:53:40.599Z,3.83
2022-12-25T03:56:27.055Z,3.60
2022-12-25T03:59:21.088Z,3.45
2022-12-25T04:02:09.396Z,3.63
2022-12-25T04:04:54.547Z,3.55
2022-12-25T04:07:39.619Z,3.40
2022-12-25T04:10:25.213Z,3.42
2022-12-25T04:13:10.248Z,3.08
2022-12-25T04:15:55.158Z,3.15
2022-12-25T04:18:40.569Z,3.10
2022-12-25T04:21:26.109Z,3.15
2022-12-25T04:24:10.888Z,3.35
2022-12-25T04:26:55.834Z,3.50
2022-12-25T04:29:40.555Z,3.50
2022-12-25T04:32:25.302Z,14.00
2022-12-25T04:35:10.542Z,6.38
2022-12-25T04:37:36.953Z,4.00
2022-12-25T04:40:03.865Z,4.47
2022-12-25T04:42:30.216Z,3.58
2022-12-25T04:44:56.656Z,3.75
2022-12-25T04:47:22.996Z,3.17
2022-12-25T04:49:50.469Z,3.38
2022-12-25T04:52:17.057Z,3.35
2022-12-25T04:54:43.411Z,3.20
2022-12-25T04:57:09.819Z,3.25
2022-12-25T04:59:36.178Z,3.50
2022-12-25T05:02:02.698Z,3.05
2022-12-25T05:04:29.302Z,3.47
2022-12-25T05:06:55.867Z,3.30
2022-12-25T05:09:22.390Z,3.38
2022-12-25T05:11:48.734Z,3.03
2022-12-25T05:14:15.337Z,3.13
2022-12-25T05:16:42.001Z,3.47
2022-12-25T05:19:09.309Z,3.20
2022-12-25T05:21:35.798Z,2.60
2022-12-25T05:24:02.402Z,3.17
2022-12-25T05:26:28.795Z,3.10
2022-12-25T05:28:55.502Z,3.08
2022-12-25T05:31:22.447Z,3.00
2022-12-25T05:33:50.678Z,3.47
2022-12-25T05:36:17.564Z,3.22
2022-12-25T05:38:44.116Z,3.47
2022-12-25T05:41:10.455Z,2.90
2022-12-25T05:43:36.829Z,3.08
2022-12-25T05:46:08.096Z,2.88
2022-12-25T05:48:37.211Z,3.20
2022-12-25T05:51:12.666Z,3.10
2022-12-25T05:53:39.868Z,3.38
2022-12-25T05:56:07.418Z,3.25
2022-12-25T05:58:35.554Z,2.90
2022-12-25T06:01:02.766Z,2.80
2022-12-25T06:03:29.431Z,3.30
2022-12-25T06:05:55.923Z,3.10
2022-12-25T06:08:22.319Z,3.05
2022-12-25T06:10:48.743Z,2.63
2022-12-25T06:13:15.231Z,3.58
2022-12-25T06:15:41.977Z,3.20
2022-12-25T06:18:08.783Z,3.30
2022-12-25T06:20:35.795Z,3.20
2022-12-25T06:23:02.238Z,3.22
2022-12-25T06:25:28.759Z,3.17
2022-12-25T06:27:55.130Z,3.58
2022-12-25T06:30:21.534Z,3.72
2022-12-25T06:32:47.906Z,3.70
2022-12-25T06:35:14.591Z,3.05
2022-12-25T06:37:41.110Z,3.22
2022-12-25T06:40:08.094Z,3.67
2022-12-25T06:42:34.891Z,3.80
2022-12-25T06:45:01.232Z,3.78
2022-12-25T06:47:27.600Z,4.10
2022-12-25T06:49:54.021Z,4.10
2022-12-25T06:52:20.362Z,4.35
2022-12-25T06:54:47.181Z,3.95
2022-12-25T06:57:13.657Z,3.95
2022-12-25T06:59:40.080Z,4.00
2022-12-25T07:02:17.089Z,3.90
2022-12-25T07:04:43.677Z,3.67
2022-12-25T07:07:10.368Z,3.83
2022-12-25T07:09:39.172Z,3.90
2022-12-25T07:12:17.973Z,4.10
2022-12-25T07:14:48.622Z,4.40
2022-12-25T07:17:16.181Z,3.88
2022-12-25T07:19:45.124Z,4.38
2022-12-25T07:22:12.164Z,4.70
2022-12-25T07:24:38.585Z,4.15
2022-12-25T07:27:04.950Z,4.75
2022-12-25T07:29:31.360Z,3.83
2022-12-25T07:31:58.212Z,4.40
2022-12-25T07:34:24.673Z,3.97
2022-12-25T07:36:51.024Z,4.10
2022-12-25T07:39:17.803Z,3.78
2022-12-25T07:41:44.443Z,3.28
2022-12-25T07:44:11.030Z,3.90
2022-12-25T07:46:37.437Z,4.35
2022-12-25T07:49:03.899Z,17.13
2022-12-25T07:51:30.469Z,18.65
2022-12-25T07:53:57.152Z,4.55
2022-12-25T07:56:23.579Z,3.70
2022-12-25T07:58:50.216Z,4.00
2022-12-25T08:01:21.158Z,4.00
2022-12-25T08:03:56.038Z,4.13
2022-12-25T08:06:24.898Z,4.30
2022-12-25T08:08:51.301Z,4.40
2022-12-25T08:11:17.935Z,7.50
2022-12-25T08:13:44.379Z,15.60
2022-12-25T08:16:11.144Z,6.80
2022-12-25T08:18:39.085Z,4.88
2022-12-25T08:21:08.377Z,5.43
2022-12-25T08:23:37.963Z,5.15
2022-12-25T08:26:05.987Z,4.97
2022-12-25T08:28:32.988Z,5.25
2022-12-25T08:30:59.379Z,5.43
2022-12-25T08:33:25.803Z,5.63
2022-12-25T08:35:52.194Z,6.38
2022-12-25T08:38:18.625Z,5.50
2022-12-25T08:40:45.225Z,5.47
2022-12-25T08:43:11.744Z,5.88
2022-12-25T08:45:38.160Z,5.80
2022-12-25T08:48:04.576Z,5.32
2022-12-25T08:50:31.172Z,5.65
2022-12-25T08:52:57.542Z,5.38
2022-12-25T08:55:23.968Z,5.97
2022-12-25T08:57:53.106Z,6.50
2022-12-25T09:00:19.844Z,7.38
2022-12-25T09:02:46.387Z,7.35
2022-12-25T09:05:12.828Z,6.75
2022-12-25T09:07:39.220Z,6.82
2022-12-25T09:10:06.322Z,7.00
2022-12-25T09:12:32.699Z,7.03
2022-12-25T09:14:59.378Z,6.63
2022-12-25T09:17:26.052Z,7.07
2022-12-25T09:19:52.460Z,6.47
2022-12-25T09:22:19.309Z,6.85
2022-12-25T09:24:45.671Z,6.25
2022-12-25T09:27:12.283Z,6.90
2022-12-25T09:29:39.113Z,8.13
2022-12-25T09:32:06.869Z,14.90
2022-12-25T09:34:33.256Z,9.60
2022-12-25T09:36:59.990Z,7.53
2022-12-25T09:39:26.764Z,7.10
2022-12-25T09:42:01.641Z,6.95
2022-12-25T09:44:36.859Z,8.43
2022-12-25T09:47:08.235Z,7.53
2022-12-25T09:49:57.577Z,7.07
2022-12-25T09:52:33.073Z,7.10
2022-12-25T09:55:12.466Z,7.68
2022-12-25T09:57:42.992Z,7.40
2022-12-25T10:00:18.215Z,8.00
2022-12-25T10:03:13.472Z,7.78
2022-12-25T10:06:04.618Z,7.50
2022-12-25T10:08:49.635Z,7.05
2022-12-25T10:11:38.509Z,7.20
2022-12-25T10:14:07.586Z,7.30
2022-12-25T10:17:15.677Z,6.72
2022-12-25T10:20:12.360Z,6.70
2022-12-25T10:22:44.062Z,7.15
2022-12-25T10:25:19.769Z,7.80
2022-12-25T10:27:51.657Z,7.50
2022-12-25T10:30:23.830Z,6.85
2022-12-25T10:32:51.584Z,7.38
2022-12-25T10:35:21.187Z,7.28
2022-12-25T10:37:59.531Z,7.13
2022-12-25T10:40:42.640Z,7.82
2022-12-25T10:43:15.404Z,9.10
2022-12-25T10:45:49.812Z,8.07
2022-12-25T10:48:34.514Z,7.80
2022-12-25T10:51:01.022Z,7.05
2022-12-25T10:53:29.043Z,6.82
2022-12-25T10:56:00.339Z,7.60
2022-12-25T10:58:27.949Z,7.60
2022-12-25T11:01:14.008Z,7.30
2022-12-25T11:03:45.715Z,7.35
2022-12-25T11:06:32.184Z,7.20
2022-12-25T11:09:01.472Z,7.10
2022-12-25T11:11:29.399Z,6.57
2022-12-25T11:14:00.972Z,7.07
2022-12-25T11:16:35.238Z,8.48
2022-12-25T11:19:02.492Z,9.88
2022-12-25T11:21:31.494Z,7.65
2022-12-25T11:24:03.706Z,7.47
2022-12-25T11:26:36.518Z,7.15
2022-12-25T11:29:03.692Z,7.45
2022-12-25T11:31:37.701Z,6.78
2022-12-25T11:34:18.483Z,6.70
2022-12-25T11:36:48.412Z,6.95
2022-12-25T11:39:36.206Z,23.35
2022-12-25T11:42:29.135Z,7.13
2022-12-25T11:45:10.783Z,6.80
2022-12-25T11:47:51.625Z,6.78
2022-12-25T11:50:35.384Z,6.60
2022-12-25T11:53:41.149Z,7.00
2022-12-25T11:56:18.751Z,6.82
2022-12-25T11:58:48.936Z,6.80
2022-12-25T12:01:32.172Z,6.75
2022-12-25T12:04:01.571Z,7.38
2022-12-25T12:06:38.309Z,6.82
2022-12-25T12:09:23.612Z,6.97
2022-12-25T12:12:04.232Z,6.43
2022-12-25T12:14:53.594Z,6.32
2022-12-25T12:17:20.181Z,7.03
2022-12-25T12:19:46.971Z,6.90
2022-12-25T12:22:18.662Z,6.68
2022-12-25T12:24:46.572Z,6.93
2022-12-25T12:27:25.259Z,6.05
2022-12-25T12:29:58.360Z,5.88
2022-12-25T12:32:44.449Z,5.90
2022-12-25T12:35:23.963Z,6.15
2022-12-25T12:37:55.529Z,5.93
2022-12-25T12:40:41.882Z,5.38
2022-12-25T12:43:31.861Z,5.47
2022-12-25T12:46:04.155Z,5.75
2022-12-25T12:48:38.301Z,5.70
2022-12-25T12:51:07.903Z,5.93
2022-12-25T12:56:19.956Z,5.82
2022-12-25T12:58:51.191Z,5.63
2022-12-25T13:01:26.599Z,5.20
2022-12-25T13:04:17.509Z,5.43
2022-12-25T13:06:49.247Z,5.60
2022-12-25T13:09:38.236Z,6.80
2022-12-25T13:12:08.126Z,4.93
2022-12-25T13:14:35.473Z,5.10
2022-12-25T13:17:01.931Z,5.30
2022-12-25T13:19:29.067Z,5.13
2022-12-25T13:21:58.465Z,5.40
2022-12-25T13:24:27.283Z,5.05
2022-12-25T13:26:53.882Z,5.18
2022-12-25T13:29:33.013Z,5.15
2022-12-25T13:32:01.794Z,5.00
2022-12-25T13:34:41.415Z,5.65
2022-12-25T13:37:10.583Z,5.82
2022-12-25T13:39:46.142Z,5.10
2022-12-25T13:42:16.745Z,5.60
2022-12-25T13:44:47.329Z,5.85
2022-12-25T13:47:23.293Z,6.20
2022-12-25T13:49:51.399Z,5.95
2022-12-25T13:52:33.272Z,6.22
2022-12-25T13:55:02.441Z,6.47
2022-12-25T13:57:38.566Z,7.32
2022-12-25T14:00:07.214Z,7.00
2022-12-25T14:02:38.085Z,6.95
2022-12-25T14:05:37.946Z,6.22
2022-12-25T14:08:23.006Z,6.82
2022-12-25T14:10:51.692Z,6.45
2022-12-25T14:13:20.946Z,6.40
2022-12-25T14:15:48.529Z,6.82
2022-12-25T14:18:17.359Z,6.93
2022-12-25T14:21:12.446Z,6.55
2022-12-25T14:23:45.493Z,6.63
2022-12-25T14:26:21.244Z,7.18
2022-12-25T14:31:15.945Z,6.95
2022-12-25T14:33:42.829Z,7.07
2022-12-25T14:36:13.135Z,7.63
2022-12-25T14:38:42.457Z,6.82
2022-12-25T14:41:33.588Z,6.60
2022-12-25T14:44:02.256Z,6.82
2022-12-25T14:46:31.452Z,6.38
2022-12-25T14:49:05.527Z,10.13
2022-12-25T14:51:33.338Z,16.23
2022-12-25T14:54:02.919Z,15.43
2022-12-25T14:56:37.952Z,7.32
2022-12-25T14:59:05.031Z,6.60
2022-12-25T15:01:38.800Z,6.95
2022-12-25T15:04:11.431Z,7.10
2022-12-25T15:06:53.050Z,6.30
2022-12-25T15:09:19.610Z,7.28
2022-12-25T15:11:50.180Z,6.97
2022-12-25T15:14:16.820Z,7.00
2022-12-25T15:16:49.457Z,7.25
2022-12-25T15:19:25.236Z,6.70
2022-12-25T15:21:53.069Z,6.97
2022-12-25T15:24:19.570Z,7.28
2022-12-25T15:26:46.159Z,7.63
2022-12-25T15:29:12.513Z,7.45
2022-12-25T15:31:39.661Z,6.93
2022-12-25T15:34:15.375Z,7.18
2022-12-25T15:36:41.736Z,8.55
2022-12-25T15:39:08.175Z,7.97
2022-12-25T15:41:55.280Z,7.03
2022-12-25T15:44:21.992Z,6.93
2022-12-25T15:46:48.411Z,7.57
2022-12-25T15:49:15.672Z,7.15
2022-12-25T15:51:43.313Z,7.80
2022-12-25T15:54:10.586Z,7.57
2022-12-25T15:56:58.365Z,7.32
2022-12-25T15:59:24.786Z,7.88
2022-12-25T16:01:56.782Z,7.72
2022-12-25T16:04:25.075Z,7.75
2022-12-25T16:06:52.621Z,9.05
2022-12-25T16:09:22.603Z,8.60
2022-12-25T16:11:49.855Z,8.48
2022-12-25T16:14:16.302Z,8.90
2022-12-25T16:16:42.716Z,8.63
2022-12-25T16:19:09.284Z,8.73
2022-12-25T16:21:46.223Z,8.50
2022-12-25T16:24:13.970Z,8.73
2022-12-25T16:26:40.508Z,8.05
2022-12-25T16:29:07.799Z,8.70
2022-12-25T16:31:35.711Z,8.35
2022-12-25T16:34:02.472Z,8.75
2022-12-25T16:36:28.893Z,8.95
2022-12-25T16:38:55.320Z,10.32
2022-12-25T16:41:21.785Z,8.73
2022-12-25T16:43:48.518Z,8.75
2022-12-25T16:46:20.611Z,11.07
2022-12-25T16:48:47.045Z,16.88
2022-12-25T16:51:16.102Z,13.85
2022-12-25T16:53:43.349Z,13.05
2022-12-25T16:56:16.104Z,31.67
2022-12-25T16:58:44.194Z,13.18
2022-12-25T17:01:12.161Z,10.82
2022-12-25T17:03:38.999Z,11.55
2022-12-25T17:06:14.197Z,11.75
2022-12-25T17:08:41.535Z,10.48
2022-12-25T17:11:08.252Z,10.60
2022-12-25T17:13:34.932Z,9.52
2022-12-25T17:16:10.737Z,10.63
2022-12-25T17:21:03.636Z,9.88
2022-12-25T17:23:29.970Z,10.00
2022-12-25T17:26:00.837Z,9.88
2022-12-25T17:28:27.211Z,9.25
2022-12-25T17:30:53.606Z,12.00
2022-12-25T17:33:20.214Z,10.98
2022-12-25T17:35:46.563Z,10.60
2022-12-25T17:38:12.926Z,10.63
2022-12-25T17:40:39.316Z,10.88
2022-12-25T17:43:05.667Z,9.25
2022-12-25T17:45:32.084Z,9.88
2022-12-25T17:47:58.446Z,10.35
2022-12-25T17:50:25.846Z,9.52
2022-12-25T17:52:52.897Z,9.40
2022-12-25T17:55:19.277Z,10.43
2022-12-25T17:57:45.673Z,10.23
2022-12-25T18:00:13.334Z,9.07
2022-12-25T18:02:40.103Z,9.27
2022-12-25T18:05:07.338Z,9.45
2022-12-25T18:07:33.807Z,9.48
2022-12-25T18:10:00.178Z,8.77
2022-12-25T18:12:26.520Z,11.30
2022-12-25T18:14:52.880Z,8.50
2022-12-25T18:17:19.252Z,9.60
2022-12-25T18:19:45.591Z,9.80
2022-12-25T18:22:12.028Z,9.60
2022-12-25T18:24:38.644Z,18.73
2022-12-25T18:27:05.002Z,10.93
2022-12-25T18:29:31.516Z,9.80
2022-12-25T18:31:58.021Z,9.60
2022-12-25T18:34:24.643Z,10.57
2022-12-25T18:36:51.294Z,9.05
2022-12-25T18:39:17.762Z,9.15
2022-12-25T18:42:02.960Z,9.32
2022-12-25T18:44:30.433Z,10.38
2022-12-25T18:46:56.890Z,9.48
2022-12-25T18:49:23.256Z,11.38
2022-12-25T18:51:49.694Z,11.65
2022-12-25T18:54:16.045Z,10.45
2022-12-25T18:56:42.477Z,9.35
2022-12-25T18:59:08.895Z,9.43
2022-12-25T19:01:35.527Z,9.77
2022-12-25T19:04:05.610Z,9.65
2022-12-25T19:06:33.286Z,9.02
2022-12-25T19:08:59.801Z,9.75
2022-12-25T19:11:26.259Z,10.05
2022-12-25T19:13:52.624Z,9.32
2022-12-25T19:16:19.024Z,9.05
2022-12-25T19:18:45.593Z,8.82
2022-12-25T19:21:12.045Z,9.32
2022-12-25T19:23:38.744Z,9.40
2022-12-25T19:26:06.562Z,9.00
2022-12-25T19:28:33.042Z,8.63
2022-12-25T19:31:00.576Z,8.35
2022-12-25T19:33:27.167Z,8.25
2022-12-25T19:35:53.620Z,7.65
2022-12-25T19:38:20.113Z,7.63
2022-12-25T19:41:00.271Z,6.72
2022-12-25T19:43:32.240Z,6.57
2022-12-25T19:45:59.217Z,8.93
2022-12-25T19:48:25.912Z,8.80
2022-12-25T19:50:52.786Z,16.73
2022-12-25T19:53:21.385Z,7.53
2022-12-25T19:55:47.747Z,6.05
2022-12-25T19:58:14.449Z,6.68
2022-12-25T20:00:41.752Z,6.38
2022-12-25T20:03:09.373Z,7.13
2022-12-25T20:05:36.190Z,6.57
2022-12-25T20:08:02.655Z,5.97
2022-12-25T20:10:29.053Z,6.35
2022-12-25T20:12:55.772Z,6.50
2022-12-25T20:15:22.123Z,6.45
2022-12-25T20:17:48.643Z,6.47
2022-12-25T20:20:15.066Z,6.30
2022-12-25T20:22:41.827Z,6.32
2022-12-25T20:25:10.726Z,6.65
2022-12-25T20:27:37.154Z,8.02
2022-12-25T20:30:04.058Z,6.70
2022-12-25T20:32:30.419Z,7.80
2022-12-25T20:34:56.841Z,7.13
2022-12-25T20:37:23.230Z,6.85
2022-12-25T20:39:49.595Z,7.75
2022-12-25T20:42:15.942Z,7.00
2022-12-25T20:44:42.300Z,6.70
2022-12-25T20:47:08.855Z,6.53
2022-12-25T20:49:35.401Z,6.68
2022-12-25T20:52:05.604Z,6.80
2022-12-25T20:54:32.371Z,7.13
2022-12-25T20:56:58.797Z,7.13
2022-12-25T20:59:25.228Z,6.97
2022-12-25T21:01:51.853Z,6.63
2022-12-25T21:04:18.603Z,6.72
2022-12-25T21:06:44.995Z,7.93
2022-12-25T21:09:11.610Z,6.53
2022-12-25T21:11:38.100Z,6.25
2022-12-25T21:14:04.545Z,6.95
2022-12-25T21:16:32.615Z,7.20
2022-12-25T21:18:59.256Z,6.75
2022-12-25T21:21:25.766Z,6.82
2022-12-25T21:23:55.269Z,6.45
2022-12-25T21:26:24.122Z,6.90
2022-12-25T21:28:52.753Z,7.00
2022-12-25T21:31:19.551Z,6.70
2022-12-25T21:33:52.023Z,6.68
2022-12-25T21:36:27.180Z,6.47
2022-12-25T21:38:59.267Z,6.97
2022-12-25T21:41:27.473Z,6.90
2022-12-25T21:43:54.814Z,6.32
2022-12-25T21:46:21.920Z,6.65
2022-12-25T21:48:48.721Z,8.25
2022-12-25T21:51:40.299Z,6.95
2022-12-25T21:54:07.778Z,6.68
2022-12-25T21:56:43.081Z,6.82
2022-12-25T21:59:13.555Z,5.97
2022-12-25T22:01:40.104Z,5.53
2022-12-25T22:04:08.894Z,6.20
2022-12-25T22:06:54.314Z,5.68
2022-12-25T22:09:21.154Z,6.13
2022-12-25T22:12:06.372Z,6.38
2022-12-25T22:14:54.940Z,6.20
2022-12-25T22:17:42.363Z,6.70
2022-12-25T22:20:11.757Z,7.03
2022-12-25T22:22:38.135Z,7.03
2022-12-25T22:25:06.257Z,7.32
2022-12-25T22:27:34.847Z,7.75
2022-12-25T22:30:02.026Z,6.90
2022-12-25T22:32:28.502Z,6.32
2022-12-25T22:34:54.981Z,6.80
2022-12-25T22:37:22.995Z,6.18
2022-12-25T22:39:49.632Z,6.55
2022-12-25T22:42:16.373Z,6.43
2022-12-25T22:44:42.848Z,6.30
2022-12-25T22:47:09.700Z,6.53
2022-12-25T22:49:36.061Z,8.35
2022-12-25T22:52:02.838Z,6.22
2022-12-25T22:54:31.620Z,6.28
2022-12-25T22:57:01.598Z,6.88
2022-12-25T22:59:27.983Z,7.57
2022-12-25T23:01:54.706Z,6.40
2022-12-25T23:04:21.642Z,6.05
2022-12-25T23:06:48.068Z,6.13
2022-12-25T23:09:22.268Z,6.90
2022-12-25T23:11:50.980Z,6.70
2022-12-25T23:14:35.682Z,5.90
2022-12-25T23:17:02.036Z,5.75
2022-12-25T23:19:54.331Z,6.50
2022-12-25T23:22:39.065Z,6.50
2022-12-25T23:25:32.314Z,6.45
2022-12-25T23:27:58.880Z,6.95
2022-12-25T23:30:25.240Z,11.98
2022-12-25T23:32:51.735Z,10.27
2022-12-25T23:35:18.103Z,9.18
2022-12-25T23:37:45.000Z,7.05
2022-12-25T23:40:11.713Z,6.45
2022-12-25T23:42:38.094Z,7.25
2022-12-25T23:45:04.864Z,7.20
2022-12-25T23:47:31.416Z,7.03
2022-12-25T23:49:58.164Z,6.60
2022-12-25T23:52:24.612Z,6.70
2022-12-25T23:54:51.057Z,6.50
2022-12-25T23:57:17.430Z,6.85
2022-12-25T23:59:43.835Z,6.38
